sensor_id;sensor_type;location;lat;lon;timestamp;pressure;altitude;pressure_sealevel;temperature;humidity
25947;BME280;13745;51.470;9.894;2023-05-21T00:02:27;99489.25;;;17.11;69.45
25947;BME280;13745;51.470;9.894;2023-05-21T00:05:13;99485.78;;;17.10;69.46
25947;BME280;13745;51.470;9.894;2023-05-21T00:08:01;99482.31;;;17.10;69.52
25947;BME280;13745;51.470;9.894;2023-05-21T00:10:46;99484.94;;;17.10;69.83
25947;BME280;13745;51.470;9.894;2023-05-21T00:13:31;99484.09;;;17.09;69.83
25947;BME280;13745;51.470;9.894;2023-05-21T00:16:16;99481.53;;;17.08;69.83
25947;BME280;13745;51.470;9.894;2023-05-21T00:19:01;99477.13;;;17.08;69.77
25947;BME280;13745;51.470;9.894;2023-05-21T00:21:46;99471.19;;;17.05;69.77
25947;BME280;13745;51.470;9.894;2023-05-21T00:24:33;99474.81;;;17.01;69.86
25947;BME280;13745;51.470;9.894;2023-05-21T00:27:18;99467.88;;;17.00;69.69
25947;BME280;13745;51.470;9.894;2023-05-21T00:30:04;99465.31;;;16.98;69.68
25947;BME280;13745;51.470;9.894;2023-05-21T00:32:49;99469.72;;;16.96;69.71
25947;BME280;13745;51.470;9.894;2023-05-21T00:35:34;99458.47;;;16.94;70.09
25947;BME280;13745;51.470;9.894;2023-05-21T00:38:20;99454.16;;;16.93;70.09
25947;BME280;13745;51.470;9.894;2023-05-21T00:41:07;99453.28;;;16.93;70.03
25947;BME280;13745;51.470;9.894;2023-05-21T00:43:52;99451.59;;;16.92;70.15
25947;BME280;13745;51.470;9.894;2023-05-21T00:46:39;99443.81;;;16.90;70.39
25947;BME280;13745;51.470;9.894;2023-05-21T00:49:25;99453.44;;;16.90;70.17
25947;BME280;13745;51.470;9.894;2023-05-21T00:52:10;99452.56;;;16.89;70.25
25947;BME280;13745;51.470;9.894;2023-05-21T00:54:55;99454.34;;;16.89;70.43
25947;BME280;13745;51.470;9.894;2023-05-21T00:57:42;99455.19;;;16.89;70.58
25947;BME280;13745;51.470;9.894;2023-05-21T01:00:29;99446.50;;;16.87;70.40
25947;BME280;13745;51.470;9.894;2023-05-21T01:03:15;99443.91;;;16.87;70.76
25947;BME280;13745;51.470;9.894;2023-05-21T01:06:01;99441.28;;;16.87;70.85
25947;BME280;13745;51.470;9.894;2023-05-21T01:08:47;99433.38;;;16.89;70.72
25947;BME280;13745;51.470;9.894;2023-05-21T01:11:37;99431.56;;;16.91;70.86
25947;BME280;13745;51.470;9.894;2023-05-21T01:14:25;99428.94;;;16.91;70.75
25947;BME280;13745;51.470;9.894;2023-05-21T01:17:10;99433.19;;;16.93;71.02
25947;BME280;13745;51.470;9.894;2023-05-21T01:19:57;99427.03;;;16.94;70.72
25947;BME280;13745;51.470;9.894;2023-05-21T01:22:49;99415.72;;;16.94;70.90
25947;BME280;13745;51.470;9.894;2023-05-21T01:25:35;99415.63;;;16.97;70.61
25947;BME280;13745;51.470;9.894;2023-05-21T01:28:20;99420.09;;;16.93;70.79
25947;BME280;13745;51.470;9.894;2023-05-21T01:31:12;99417.63;;;16.90;70.88
25947;BME280;13745;51.470;9.894;2023-05-21T01:34:01;99425.53;;;16.89;70.80
25947;BME280;13745;51.470;9.894;2023-05-21T01:36:54;99422.16;;;16.85;70.76
25947;BME280;13745;51.470;9.894;2023-05-21T01:39:45;99417.91;;;16.82;70.79
25947;BME280;13745;51.470;9.894;2023-05-21T01:42:35;99410.13;;;16.81;70.67
25947;BME280;13745;51.470;9.894;2023-05-21T01:45:21;99415.44;;;16.78;70.55
25947;BME280;13745;51.470;9.894;2023-05-21T01:48:08;99415.66;;;16.73;70.76
25947;BME280;13745;51.470;9.894;2023-05-21T01:50:58;99413.13;;;16.70;70.72
25947;BME280;13745;51.470;9.894;2023-05-21T01:53:44;99411.44;;;16.68;70.60
25947;BME280;13745;51.470;9.894;2023-05-21T01:56:30;99412.44;;;16.65;70.62
25947;BME280;13745;51.470;9.894;2023-05-21T01:59:16;99409.91;;;16.62;70.79
25947;BME280;13745;51.470;9.894;2023-05-21T02:02:03;99399.63;;;16.57;70.82
25947;BME280;13745;51.470;9.894;2023-05-21T02:04:48;99406.63;;;16.57;70.83
25947;BME280;13745;51.470;9.894;2023-05-21T02:07:33;99405.84;;;16.55;71.15
25947;BME280;13745;51.470;9.894;2023-05-21T02:10:20;99410.16;;;16.56;71.08
25947;BME280;13745;51.470;9.894;2023-05-21T02:13:06;99398.00;;;16.55;71.08
25947;BME280;13745;51.470;9.894;2023-05-21T02:15:51;99403.22;;;16.55;70.98
25947;BME280;13745;51.470;9.894;2023-05-21T02:18:37;99393.69;;;16.52;70.99
25947;BME280;13745;51.470;9.894;2023-05-21T02:21:25;99393.69;;;16.52;70.93
25947;BME280;13745;51.470;9.894;2023-05-21T02:24:10;99397.28;;;16.50;71.08
25947;BME280;13745;51.470;9.894;2023-05-21T02:26:55;99400.03;;;16.47;71.23
25947;BME280;13745;51.470;9.894;2023-05-21T02:29:42;99398.38;;;16.44;71.45
25947;BME280;13745;51.470;9.894;2023-05-21T02:32:28;99406.16;;;16.46;71.33
25947;BME280;13745;51.470;9.894;2023-05-21T02:35:14;99399.28;;;16.43;71.59
25947;BME280;13745;51.470;9.894;2023-05-21T02:38:00;99392.34;;;16.42;71.47
25947;BME280;13745;51.470;9.894;2023-05-21T02:40:46;99396.72;;;16.42;71.37
25947;BME280;13745;51.470;9.894;2023-05-21T02:43:31;99396.78;;;16.40;71.50
25947;BME280;13745;51.470;9.894;2023-05-21T02:46:17;99399.41;;;16.40;71.48
25947;BME280;13745;51.470;9.894;2023-05-21T02:49:02;99392.47;;;16.39;71.40
25947;BME280;13745;51.470;9.894;2023-05-21T02:51:48;99394.22;;;16.39;71.12
25947;BME280;13745;51.470;9.894;2023-05-21T02:54:33;99390.84;;;16.35;71.14
25947;BME280;13745;51.470;9.894;2023-05-21T02:57:18;99397.00;;;16.34;71.32
25947;BME280;13745;51.470;9.894;2023-05-21T03:00:04;99391.84;;;16.33;71.60
25947;BME280;13745;51.470;9.894;2023-05-21T03:02:54;99391.84;;;16.33;71.74
25947;BME280;13745;51.470;9.894;2023-05-21T03:05:39;99395.38;;;16.32;71.50
25947;BME280;13745;51.470;9.894;2023-05-21T03:08:24;99399.75;;;16.31;71.39
25947;BME280;13745;51.470;9.894;2023-05-21T03:11:09;99410.22;;;16.29;71.33
25947;BME280;13745;51.470;9.894;2023-05-21T03:13:54;99405.91;;;16.28;71.94
25947;BME280;13745;51.470;9.894;2023-05-21T03:16:39;99411.28;;;16.25;71.39
25947;BME280;13745;51.470;9.894;2023-05-21T03:19:28;99410.47;;;16.23;71.76
25947;BME280;13745;51.470;9.894;2023-05-21T03:22:18;99407.94;;;16.22;71.59
25947;BME280;13745;51.470;9.894;2023-05-21T03:25:05;99408.81;;;16.21;71.66
25947;BME280;13745;51.470;9.894;2023-05-21T03:27:50;99406.25;;;16.19;71.79
25947;BME280;13745;51.470;9.894;2023-05-21T03:30:57;99406.25;;;16.19;71.49
25947;BME280;13745;51.470;9.894;2023-05-21T03:33:52;99405.53;;;16.16;71.64
25947;BME280;13745;51.470;9.894;2023-05-21T03:36:42;99394.28;;;16.14;72.03
25947;BME280;13745;51.470;9.894;2023-05-21T03:39:27;99413.44;;;16.14;71.68
25947;BME280;13745;51.470;9.894;2023-05-21T03:42:13;99405.59;;;16.14;71.84
25947;BME280;13745;51.470;9.894;2023-05-21T03:45:05;99412.56;;;16.14;71.66
25947;BME280;13745;51.470;9.894;2023-05-21T03:48:15;99412.56;;;16.14;71.80
25947;BME280;13745;51.470;9.894;2023-05-21T03:51:00;99403.00;;;16.13;71.86
25947;BME280;13745;51.470;9.894;2023-05-21T03:53:48;99404.81;;;16.11;72.08
25947;BME280;13745;51.470;9.894;2023-05-21T03:56:33;99409.13;;;16.12;71.99
25947;BME280;13745;51.470;9.894;2023-05-21T03:59:18;99398.59;;;16.15;72.31
25947;BME280;13745;51.470;9.894;2023-05-21T04:02:04;99401.13;;;16.16;72.18
25947;BME280;13745;51.470;9.894;2023-05-21T04:04:49;99399.31;;;16.18;72.02
25947;BME280;13745;51.470;9.894;2023-05-21T04:07:36;99397.47;;;16.22;72.38
25947;BME280;13745;51.470;9.894;2023-05-21T04:10:23;99403.41;;;16.25;72.26
25947;BME280;13745;51.470;9.894;2023-05-21T04:13:08;99407.63;;;16.29;72.18
25947;BME280;13745;51.470;9.894;2023-05-21T04:15:53;99397.97;;;16.32;72.27
25947;BME280;13745;51.470;9.894;2023-05-21T04:18:38;99406.50;;;16.37;72.14
25947;BME280;13745;51.470;9.894;2023-05-21T04:21:23;99407.25;;;16.40;72.33
25947;BME280;13745;51.470;9.894;2023-05-21T04:24:08;99403.53;;;16.46;72.36
25947;BME280;13745;51.470;9.894;2023-05-21T04:27:05;99399.91;;;16.50;72.48
25947;BME280;13745;51.470;9.894;2023-05-21T04:29:52;99408.31;;;16.58;72.33
25947;BME280;13745;51.470;9.894;2023-05-21T04:32:41;99396.78;;;16.64;72.20
25947;BME280;13745;51.470;9.894;2023-05-21T04:35:28;99406.09;;;16.72;72.30
25947;BME280;13745;51.470;9.894;2023-05-21T04:38:14;99394.50;;;16.78;72.10
25947;BME280;13745;51.470;9.894;2023-05-21T04:41:02;99387.28;;;16.84;72.34
25947;BME280;13745;51.470;9.894;2023-05-21T04:43:48;99394.91;;;16.91;72.35
25947;BME280;13745;51.470;9.894;2023-05-21T04:46:38;99387.59;;;16.99;72.20
25947;BME280;13745;51.470;9.894;2023-05-21T04:49:23;99389.97;;;17.05;72.25
25947;BME280;13745;51.470;9.894;2023-05-21T04:52:08;99399.25;;;17.13;72.23
25947;BME280;13745;51.470;9.894;2023-05-21T04:54:53;99394.66;;;17.19;72.21
25947;BME280;13745;51.470;9.894;2023-05-21T04:57:38;99390.94;;;17.24;71.73
25947;BME280;13745;51.470;9.894;2023-05-21T05:00:26;99395.94;;;17.30;72.05
25947;BME280;13745;51.470;9.894;2023-05-21T05:03:11;99393.91;;;17.37;71.97
25947;BME280;13745;51.470;9.894;2023-05-21T05:05:56;99389.25;;;17.44;71.68
25947;BME280;13745;51.470;9.894;2023-05-21T05:08:41;99390.78;;;17.49;71.81
25947;BME280;13745;51.470;9.894;2023-05-21T05:11:26;99394.09;;;17.54;71.67
25947;BME280;13745;51.470;9.894;2023-05-21T05:14:11;99389.47;;;17.59;71.54
25947;BME280;13745;51.470;9.894;2023-05-21T05:16:57;99392.72;;;17.66;71.53
25947;BME280;13745;51.470;9.894;2023-05-21T05:19:44;99395.16;;;17.71;71.47
25947;BME280;13745;51.470;9.894;2023-05-21T05:22:30;99399.22;;;17.78;71.30
25947;BME280;13745;51.470;9.894;2023-05-21T05:25:15;99388.47;;;17.84;71.35
25947;BME280;13745;51.470;9.894;2023-05-21T05:28:01;99390.00;;;17.89;71.36
25947;BME280;13745;51.470;9.894;2023-05-21T05:30:46;99389.78;;;17.94;71.20
25947;BME280;13745;51.470;9.894;2023-05-21T05:33:40;99389.38;;;18.03;71.20
25947;BME280;13745;51.470;9.894;2023-05-21T05:36:25;99397.91;;;18.08;70.79
25947;BME280;13745;51.470;9.894;2023-05-21T05:39:10;99396.88;;;18.12;70.83
25947;BME280;13745;51.470;9.894;2023-05-21T05:41:56;99393.03;;;18.19;70.72
25947;BME280;13745;51.470;9.894;2023-05-21T05:44:41;99391.00;;;18.26;70.83
25947;BME280;13745;51.470;9.894;2023-05-21T05:47:26;99383.56;;;18.36;70.52
25947;BME280;13745;51.470;9.894;2023-05-21T05:50:13;99382.28;;;18.44;70.50
25947;BME280;13745;51.470;9.894;2023-05-21T05:52:58;99381.91;;;18.53;70.45
25947;BME280;13745;51.470;9.894;2023-05-21T05:55:43;99384.13;;;18.61;70.13
25947;BME280;13745;51.470;9.894;2023-05-21T05:58:29;99380.34;;;18.68;69.82
25947;BME280;13745;51.470;9.894;2023-05-21T06:01:23;99392.19;;;18.77;69.63
25947;BME280;13745;51.470;9.894;2023-05-21T06:04:09;99388.38;;;18.84;69.67
25947;BME280;13745;51.470;9.894;2023-05-21T06:06:56;99385.38;;;18.92;69.35
25947;BME280;13745;51.470;9.894;2023-05-21T06:09:41;99385.94;;;18.98;69.39
25947;BME280;13745;51.470;9.894;2023-05-21T06:12:26;99386.44;;;19.06;69.33
25947;BME280;13745;51.470;9.894;2023-05-21T06:15:12;99379.88;;;19.15;69.30
25947;BME280;13745;51.470;9.894;2023-05-21T06:17:57;99379.50;;;19.23;68.96
25947;BME280;13745;51.470;9.894;2023-05-21T06:20:43;99387.63;;;19.35;69.00
25947;BME280;13745;51.470;9.894;2023-05-21T06:23:30;99392.38;;;19.46;68.83
25947;BME280;13745;51.470;9.894;2023-05-21T06:26:16;99394.34;;;19.60;68.95
25947;BME280;13745;51.470;9.894;2023-05-21T06:29:04;99395.44;;;19.73;68.90
25947;BME280;13745;51.470;9.894;2023-05-21T06:31:50;99388.69;;;19.85;68.72
25947;BME280;13745;51.470;9.894;2023-05-21T06:34:35;99395.03;;;19.98;68.83
25947;BME280;13745;51.470;9.894;2023-05-21T06:37:20;99400.53;;;20.11;68.61
25947;BME280;13745;51.470;9.894;2023-05-21T06:40:08;99395.44;;;20.24;68.44
25947;BME280;13745;51.470;9.894;2023-05-21T06:42:54;99399.69;;;20.43;68.34
25947;BME280;13745;51.470;9.894;2023-05-21T06:45:39;99395.22;;;20.61;68.10
25947;BME280;13745;51.470;9.894;2023-05-21T06:48:37;99393.53;;;20.76;68.24
25947;BME280;13745;51.470;9.894;2023-05-21T06:51:22;99388.63;;;20.86;67.30
25947;BME280;13745;51.470;9.894;2023-05-21T06:54:08;99386.31;;;20.95;67.41
25947;BME280;13745;51.470;9.894;2023-05-21T06:56:58;99384.84;;;21.06;67.52
25947;BME280;13745;51.470;9.894;2023-05-21T06:59:43;99392.16;;;21.16;67.50
25947;BME280;13745;51.470;9.894;2023-05-21T07:02:28;99387.19;;;21.26;67.14
25947;BME280;13745;51.470;9.894;2023-05-21T07:05:14;99382.38;;;21.34;66.74
25947;BME280;13745;51.470;9.894;2023-05-21T07:07:59;99382.72;;;21.44;66.97
25947;BME280;13745;51.470;9.894;2023-05-21T07:10:44;99375.09;;;21.53;66.44
25947;BME280;13745;51.470;9.894;2023-05-21T07:13:31;99384.28;;;21.62;66.69
25947;BME280;13745;51.470;9.894;2023-05-21T07:16:16;99381.00;;;21.73;66.71
25947;BME280;13745;51.470;9.894;2023-05-21T07:19:01;99375.06;;;21.83;65.97
25947;BME280;13745;51.470;9.894;2023-05-21T07:21:47;99377.16;;;21.93;66.23
25947;BME280;13745;51.470;9.894;2023-05-21T07:24:33;99372.19;;;22.02;66.08
25947;BME280;13745;51.470;9.894;2023-05-21T07:27:18;99376.09;;;22.11;65.45
25947;BME280;13745;51.470;9.894;2023-05-21T07:30:06;99371.09;;;22.21;65.86
25947;BME280;13745;51.470;9.894;2023-05-21T07:32:53;99372.03;;;22.34;65.72
25947;BME280;13745;51.470;9.894;2023-05-21T07:35:38;99374.03;;;22.45;65.53
25947;BME280;13745;51.470;9.894;2023-05-21T07:38:24;99374.28;;;22.54;65.43
25947;BME280;13745;51.470;9.894;2023-05-21T07:41:10;99377.31;;;22.62;65.28
25947;BME280;13745;51.470;9.894;2023-05-21T07:43:56;99375.03;;;22.70;65.16
25947;BME280;13745;51.470;9.894;2023-05-21T07:46:46;99368.22;;;22.81;64.62
25947;BME280;13745;51.470;9.894;2023-05-21T07:49:31;99364.81;;;22.93;64.98
25947;BME280;13745;51.470;9.894;2023-05-21T07:52:16;99365.06;;;23.03;64.83
25947;BME280;13745;51.470;9.894;2023-05-21T07:55:01;99364.38;;;23.13;64.41
25947;BME280;13745;51.470;9.894;2023-05-21T07:57:50;99370.63;;;23.25;64.00
25947;BME280;13745;51.470;9.894;2023-05-21T08:00:42;99364.78;;;23.34;63.84
25947;BME280;13745;51.470;9.894;2023-05-21T08:03:31;99360.75;;;23.41;63.98
25947;BME280;13745;51.470;9.894;2023-05-21T08:06:16;99364.38;;;23.53;63.44
25947;BME280;13745;51.470;9.894;2023-05-21T08:09:02;99367.91;;;23.66;63.73
25947;BME280;13745;51.470;9.894;2023-05-21T08:11:48;99360.34;;;23.87;63.05
25947;BME280;13745;51.470;9.894;2023-05-21T08:14:34;99366.59;;;24.12;62.88
25947;BME280;13745;51.470;9.894;2023-05-21T08:17:19;99374.00;;;24.32;62.55
25947;BME280;13745;51.470;9.894;2023-05-21T08:20:07;99367.34;;;24.52;62.30
25947;BME280;13745;51.470;9.894;2023-05-21T08:22:55;99369.19;;;24.75;62.05
25947;BME280;13745;51.470;9.894;2023-05-21T08:25:41;99365.41;;;24.90;61.71
25947;BME280;13745;51.470;9.894;2023-05-21T08:28:28;99366.13;;;25.05;61.69
25947;BME280;13745;51.470;9.894;2023-05-21T08:31:16;99362.59;;;25.17;61.07
25947;BME280;13745;51.470;9.894;2023-05-21T08:34:01;99367.81;;;25.30;60.69
25947;BME280;13745;51.470;9.894;2023-05-21T08:36:58;99361.81;;;25.39;60.30
25947;BME280;13745;51.470;9.894;2023-05-21T08:40:03;99362.03;;;25.60;60.26
25947;BME280;13745;51.470;9.894;2023-05-21T08:42:54;99357.53;;;25.85;60.04
25947;BME280;13745;51.470;9.894;2023-05-21T08:45:53;99360.25;;;26.07;59.74
25947;BME280;13745;51.470;9.894;2023-05-21T08:48:41;99358.66;;;26.27;59.22
25947;BME280;13745;51.470;9.894;2023-05-21T08:51:27;99357.72;;;26.50;59.13
25947;BME280;13745;51.470;9.894;2023-05-21T08:54:14;99352.50;;;26.71;58.78
25947;BME280;13745;51.470;9.894;2023-05-21T08:57:00;99358.13;;;26.89;58.51
25947;BME280;13745;51.470;9.894;2023-05-21T08:59:47;99358.75;;;27.04;58.29
25947;BME280;13745;51.470;9.894;2023-05-21T09:02:40;99350.22;;;27.21;58.07
25947;BME280;13745;51.470;9.894;2023-05-21T09:05:27;99349.72;;;27.27;57.86
25947;BME280;13745;51.470;9.894;2023-05-21T09:08:17;99337.00;;;27.31;57.91
25947;BME280;13745;51.470;9.894;2023-05-21T09:11:25;99338.16;;;27.38;57.32
25947;BME280;13745;51.470;9.894;2023-05-21T09:14:14;99336.09;;;27.41;57.48
25947;BME280;13745;51.470;9.894;2023-05-21T09:17:19;99334.16;;;27.43;57.18
25947;BME280;13745;51.470;9.894;2023-05-21T09:20:14;99344.44;;;27.48;57.26
25947;BME280;13745;51.470;9.894;2023-05-21T09:23:07;99338.47;;;27.56;56.88
25947;BME280;13745;51.470;9.894;2023-05-21T09:25:55;99338.75;;;27.62;56.53
25947;BME280;13745;51.470;9.894;2023-05-21T09:28:49;99335.47;;;27.70;56.37
25947;BME280;13745;51.470;9.894;2023-05-21T09:31:42;99334.25;;;27.74;56.93
25947;BME280;13745;51.470;9.894;2023-05-21T09:34:29;99338.81;;;27.83;56.63
25947;BME280;13745;51.470;9.894;2023-05-21T09:37:14;99328.16;;;27.83;56.51
25947;BME280;13745;51.470;9.894;2023-05-21T09:40:00;99336.97;;;27.84;56.55
25947;BME280;13745;51.470;9.894;2023-05-21T09:42:47;99332.78;;;27.81;56.46
25947;BME280;13745;51.470;9.894;2023-05-21T09:45:34;99332.78;;;27.81;56.55
25947;BME280;13745;51.470;9.894;2023-05-21T09:48:32;99328.31;;;27.91;56.56
25947;BME280;13745;51.470;9.894;2023-05-21T09:51:19;99332.72;;;28.02;56.59
25947;BME280;13745;51.470;9.894;2023-05-21T09:54:04;99330.84;;;28.14;56.62
25947;BME280;13745;51.470;9.894;2023-05-21T09:56:50;99322.75;;;28.25;56.61
25947;BME280;13745;51.470;9.894;2023-05-21T09:59:36;99325.19;;;28.38;56.27
25947;BME280;13745;51.470;9.894;2023-05-21T10:02:24;99322.56;;;28.47;55.96
25947;BME280;13745;51.470;9.894;2023-05-21T10:05:10;99326.09;;;28.58;55.50
25947;BME280;13745;51.470;9.894;2023-05-21T10:07:59;99318.66;;;28.61;55.31
25947;BME280;13745;51.470;9.894;2023-05-21T10:10:47;99315.00;;;28.62;55.62
25947;BME280;13745;51.470;9.894;2023-05-21T10:13:35;99311.63;;;28.60;55.85
25947;BME280;13745;51.470;9.894;2023-05-21T10:16:23;99309.81;;;28.61;55.50
25947;BME280;13745;51.470;9.894;2023-05-21T10:19:10;99307.28;;;28.59;55.61
25947;BME280;13745;51.470;9.894;2023-05-21T10:21:58;99310.94;;;28.58;55.14
25947;BME280;13745;51.470;9.894;2023-05-21T10:24:44;99309.25;;;28.57;55.64
25947;BME280;13745;51.470;9.894;2023-05-21T10:27:30;99300.28;;;28.58;55.47
25947;BME280;13745;51.470;9.894;2023-05-21T10:30:16;99303.78;;;28.59;55.22
25947;BME280;13745;51.470;9.894;2023-05-21T10:33:03;99302.78;;;28.60;55.32
25947;BME280;13745;51.470;9.894;2023-05-21T10:35:50;99300.97;;;28.60;55.67
25947;BME280;13745;51.470;9.894;2023-05-21T10:38:36;99292.97;;;28.60;55.52
25947;BME280;13745;51.470;9.894;2023-05-21T10:41:22;99295.25;;;28.65;55.32
25947;BME280;13745;51.470;9.894;2023-05-21T10:44:15;99296.50;;;28.70;55.69
25947;BME280;13745;51.470;9.894;2023-05-21T10:47:31;99303.56;;;28.81;55.10
25947;BME280;13745;51.470;9.894;2023-05-21T10:50:34;99283.75;;;28.83;55.34
25947;BME280;13745;51.470;9.894;2023-05-21T10:53:35;99295.81;;;28.88;54.84
25947;BME280;13745;51.470;9.894;2023-05-21T10:56:29;99293.03;;;28.89;55.13
25947;BME280;13745;51.470;9.894;2023-05-21T10:59:27;99297.25;;;28.92;54.92
25947;BME280;13745;51.470;9.894;2023-05-21T11:02:18;99282.78;;;28.94;54.48
25947;BME280;13745;51.470;9.894;2023-05-21T11:05:05;99283.91;;;29.01;54.87
25947;BME280;13745;51.470;9.894;2023-05-21T11:07:51;99284.19;;;29.08;54.90
25947;BME280;13745;51.470;9.894;2023-05-21T11:10:40;99284.50;;;29.15;54.67
25947;BME280;13745;51.470;9.894;2023-05-21T11:13:28;99280.53;;;29.28;54.55
25947;BME280;13745;51.470;9.894;2023-05-21T11:16:28;99274.06;;;29.41;55.13
25947;BME280;13745;51.470;9.894;2023-05-21T11:19:16;99270.56;;;29.50;54.92
25947;BME280;13745;51.470;9.894;2023-05-21T11:22:05;99274.88;;;29.60;54.28
25947;BME280;13745;51.470;9.894;2023-05-21T11:24:52;99276.56;;;29.71;54.62
25947;BME280;13745;51.470;9.894;2023-05-21T11:27:39;99266.53;;;29.83;54.75
25947;BME280;13745;51.470;9.894;2023-05-21T11:30:24;99271.69;;;29.94;54.51
25947;BME280;13745;51.470;9.894;2023-05-21T11:33:16;99264.06;;;29.99;53.90
25947;BME280;13745;51.470;9.894;2023-05-21T11:36:10;99257.88;;;30.08;53.84
25947;BME280;13745;51.470;9.894;2023-05-21T11:39:07;99259.13;;;30.14;53.44
25947;BME280;13745;51.470;9.894;2023-05-21T11:41:56;99256.97;;;30.17;53.04
25947;BME280;13745;51.470;9.894;2023-05-21T11:44:46;99252.72;;;30.25;53.90
25947;BME280;13745;51.470;9.894;2023-05-21T11:47:31;99258.03;;;30.34;53.40
25947;BME280;13745;51.470;9.894;2023-05-21T11:50:17;99253.31;;;30.46;54.15
25947;BME280;13745;51.470;9.894;2023-05-21T11:53:02;99256.28;;;30.61;54.08
25947;BME280;13745;51.470;9.894;2023-05-21T11:55:48;99250.94;;;30.70;52.78
25947;BME280;13745;51.470;9.894;2023-05-21T11:58:41;99245.50;;;30.80;53.08
25947;BME280;13745;51.470;9.894;2023-05-21T12:01:27;99244.59;;;30.89;53.33
25947;BME280;13745;51.470;9.894;2023-05-21T12:04:14;99240.66;;;31.01;53.26
25947;BME280;13745;51.470;9.894;2023-05-21T12:07:02;99236.38;;;31.09;52.86
25947;BME280;13745;51.470;9.894;2023-05-21T12:09:49;99224.72;;;31.18;52.35
25947;BME280;13745;51.470;9.894;2023-05-21T12:12:35;99235.16;;;31.21;52.85
25947;BME280;13745;51.470;9.894;2023-05-21T12:15:20;99230.16;;;31.26;52.65
25947;BME280;13745;51.470;9.894;2023-05-21T12:18:06;99221.84;;;31.29;52.20
25947;BME280;13745;51.470;9.894;2023-05-21T12:20:52;99230.56;;;31.31;51.90
25947;BME280;13745;51.470;9.894;2023-05-21T12:23:37;99222.50;;;31.31;51.13
25947;BME280;13745;51.470;9.894;2023-05-21T12:26:22;99239.28;;;31.33;51.10
25947;BME280;13745;51.470;9.894;2023-05-21T12:29:09;99231.56;;;31.30;50.89
25947;BME280;13745;51.470;9.894;2023-05-21T12:31:58;99240.06;;;31.25;51.38
25947;BME280;13745;51.470;9.894;2023-05-21T12:34:46;99242.06;;;31.23;49.90
25947;BME280;13745;51.470;9.894;2023-05-21T12:37:31;99233.69;;;31.26;50.75
25947;BME280;13745;51.470;9.894;2023-05-21T12:40:18;99237.91;;;31.29;50.81
25947;BME280;13745;51.470;9.894;2023-05-21T12:43:04;99232.22;;;31.32;50.14
25947;BME280;13745;51.470;9.894;2023-05-21T12:45:50;99231.41;;;31.31;50.30
25947;BME280;13745;51.470;9.894;2023-05-21T12:48:35;99233.41;;;31.29;50.04
25947;BME280;13745;51.470;9.894;2023-05-21T12:51:22;99236.84;;;31.22;50.08
25947;BME280;13745;51.470;9.894;2023-05-21T12:54:10;99227.41;;;31.18;50.39
25947;BME280;13745;51.470;9.894;2023-05-21T12:56:56;99237.28;;;31.17;50.16
25947;BME280;13745;51.470;9.894;2023-05-21T12:59:46;99231.56;;;31.12;49.68
25947;BME280;13745;51.470;9.894;2023-05-21T13:02:39;99228.34;;;31.09;49.77
25947;BME280;13745;51.470;9.894;2023-05-21T13:05:24;99221.13;;;31.27;49.96
25947;BME280;13745;51.470;9.894;2023-05-21T13:08:10;99223.53;;;31.12;50.07
25947;BME280;13745;51.470;9.894;2023-05-21T13:10:58;99209.47;;;31.18;50.80
25947;BME280;13745;51.470;9.894;2023-05-21T13:13:43;99209.97;;;31.31;50.11
25947;BME280;13745;51.470;9.894;2023-05-21T13:16:28;99211.84;;;31.39;49.93
25947;BME280;13745;51.470;9.894;2023-05-21T13:19:13;99198.13;;;31.42;49.68
25947;BME280;13745;51.470;9.894;2023-05-21T13:21:59;99206.31;;;31.41;48.60
25947;BME280;13745;51.470;9.894;2023-05-21T13:24:45;99199.75;;;31.35;48.76
25947;BME280;13745;51.470;9.894;2023-05-21T13:27:30;99201.13;;;31.39;48.86
25947;BME280;13745;51.470;9.894;2023-05-21T13:30:16;99200.28;;;31.39;48.82
25947;BME280;13745;51.470;9.894;2023-05-21T13:33:01;99190.03;;;31.34;48.85
25947;BME280;13745;51.470;9.894;2023-05-21T13:35:46;99187.31;;;31.26;49.06
25947;BME280;13745;51.470;9.894;2023-05-21T13:38:33;99187.38;;;31.16;49.05
25947;BME280;13745;51.470;9.894;2023-05-21T13:41:20;99173.75;;;31.10;48.93
25947;BME280;13745;51.470;9.894;2023-05-21T13:44:05;99181.06;;;30.99;47.95
25947;BME280;13745;51.470;9.894;2023-05-21T13:46:50;99188.69;;;30.94;48.85
25947;BME280;13745;51.470;9.894;2023-05-21T13:49:36;99181.00;;;30.91;48.65
25947;BME280;13745;51.470;9.894;2023-05-21T13:52:22;99186.81;;;30.87;48.90
25947;BME280;13745;51.470;9.894;2023-05-21T13:55:08;99184.09;;;30.79;49.32
25947;BME280;13745;51.470;9.894;2023-05-21T13:57:55;99173.59;;;30.67;48.78
25947;BME280;13745;51.470;9.894;2023-05-21T14:00:40;99184.19;;;30.59;48.64
25947;BME280;13745;51.470;9.894;2023-05-21T14:03:25;99169.88;;;30.51;49.68
25947;BME280;13745;51.470;9.894;2023-05-21T14:06:11;99178.31;;;30.56;49.78
25947;BME280;13745;51.470;9.894;2023-05-21T14:08:56;99170.66;;;30.61;49.80
25947;BME280;13745;51.470;9.894;2023-05-21T14:11:41;99174.16;;;30.61;49.76
25947;BME280;13745;51.470;9.894;2023-05-21T14:14:28;99176.56;;;30.64;50.26
25947;BME280;13745;51.470;9.894;2023-05-21T14:17:13;99171.81;;;30.76;49.84
25947;BME280;13745;51.470;9.894;2023-05-21T14:19:58;99168.59;;;30.90;50.58
25947;BME280;13745;51.470;9.894;2023-05-21T14:22:44;99178.16;;;30.93;49.28
25947;BME280;13745;51.470;9.894;2023-05-21T14:25:29;99178.00;;;30.94;49.92
25947;BME280;13745;51.470;9.894;2023-05-21T14:28:14;99176.31;;;30.93;49.93
25947;BME280;13745;51.470;9.894;2023-05-21T14:31:00;99171.88;;;30.84;50.16
25947;BME280;13745;51.470;9.894;2023-05-21T14:33:45;99168.16;;;30.77;49.83
25947;BME280;13745;51.470;9.894;2023-05-21T14:36:31;99175.59;;;30.65;49.46
25947;BME280;13745;51.470;9.894;2023-05-21T14:39:16;99168.44;;;30.56;49.67
25947;BME280;13745;51.470;9.894;2023-05-21T14:42:01;99166.53;;;30.48;49.24
25947;BME280;13745;51.470;9.894;2023-05-21T14:44:46;99167.69;;;30.46;49.90
25947;BME280;13745;51.470;9.894;2023-05-21T14:47:33;99172.81;;;30.39;49.80